Aviation Digital Data Service (ADDS)

Output produced by METARs form (0917 UTC 19 April 2019)
found at http://www.aviationweather.gov/metar/data/
 
Forecast for: DBBB (COTONOU/CADJEHOU, BJ)
Text: TAF DBBB 190500Z 1906/2012 22010KT 9999 SCT013
Forecast period: 0600 UTC 19 April 2019 to 1200 UTC 20 April 2019
Forecast type: FROM: standard forecast or significant change
Winds: from the SW (220 degrees) at 12 MPH (10 knots; 5.1 m/s)
Visibility: 6 or more miles 10+ km)
Ceiling: at least 12,000 feet AGL
Clouds: scattered clouds at 1300 feet AGL
Weather: no significant weather forecast for this period
Text: TEMPO 1914/1920 TS BKN012 FEW023CB
Forecast period: 1400 to 2000 UTC 19 April 2019
Forecast type: TEMPORARY: The following changes expected for less than half the time period
Visibility: missing
Ceiling: 1200 feet AGL
Clouds: broken clouds at 1200 feet AGL
few clouds at 2300 feet AGL
Weather: TS  (thunderstorm)
Text: PROB30
Forecast period: 2200 UTC 19 April 2019 to 0400 UTC 20 April 2019
Forecast type: TEMPORARY: The following changes expected for less than half the time period
Visibility: missing
Ceiling: 1000 feet AGL
Clouds: broken clouds at 1000 feet AGL
few clouds at 2300 feet AGL
Weather: TS  (thunderstorm)